Lyon, MS

2:02 AM CST on February 27, 2017 (GMT -0600)
Fletcher

Weather History for KCKM - March, 2014

Change the Weather History Date:

Wednesday, March 5, 2014

  Actual Average (KUOX) Record (KUOX)
Temperature  
Mean Temperature 35 °F -  
Max Temperature 44 °F 59 °F 81 °F (1963)
Min Temperature 26 °F 35 °F 10 °F (1978)
Degree Days  
Heating Degree Days 30    
Moisture  
Dew Point 33 °F    
Average Humidity 96    
Maximum Humidity 100    
Minimum Humidity 81    
Precipitation  
Precipitation 0.00 in - - ()
Sea Level Pressure  
Sea Level Pressure 30.16 in    
Wind  
Wind Speed 6 mph (North)    
Max Wind Speed 17 mph    
Max Gust Speed 21 mph    
Visibility 2 miles    
Events      
Averages and records for this station are not official NWS values.
T = Trace of Precipitation, MM = Missing Value Source: NWS Daily Summary

Daily Weather History Graph

Daily Weather History Graph

Search for Another Location

Airport or City:

Trip Planner

Search our weather history database for the weather conditions in past years. The results will help you decide how hot, cold, wet, or windy it might be!

Date:

Astronomy

Mar. 05, 2014 Rise Set
Actual Time 6:25 AM CST 6:01 PM CST
Civil Twilight 6:00 AM CST 6:26 PM CST
Nautical Twilight 5:31 AM CST 6:55 PM CST
Astronomical Twilight 5:02 AM CST 7:24 PM CST
Moon 9:04 AM CST (3/5) 10:56 PM CST (3/5)
Length of Visible Light 12h 26m
Length of Day
11h 35m
Waxing Crescent, 23% of the Moon is Illuminated
Mar 5
Waxing Crescent
Mar 8
First Quarter
Mar 16
Full
Mar 23
Last Quarter
Mar 30
New

Hourly Weather History & Observations

Time (CST) Temp. Windchill Dew Point Humidity Pressure Visibility Wind Dir Wind Speed Gust Speed Precip Events Conditions
12:15 AM 28.4 °F - 28.4 °F 100% 30.16 in 3.0 mi Calm Calm - N/A   Unknown
12:35 AM 28.4 °F - 28.4 °F 100% 30.17 in 2.5 mi Calm Calm - N/A   Unknown
12:55 AM 28.4 °F - 28.4 °F 100% 30.17 in 3.0 mi Calm Calm - N/A   Unknown
1:15 AM 28.4 °F - 28.4 °F 100% 30.16 in 1.8 mi North - - N/A   Unknown
1:35 AM 28.4 °F - 28.4 °F 100% 30.16 in 2.0 mi Calm Calm - N/A   Unknown
1:55 AM 28.4 °F - 28.4 °F 100% 30.15 in 1.8 mi Calm Calm - N/A   Unknown
2:15 AM 28.4 °F - 28.4 °F 100% 30.15 in 2.0 mi Calm Calm - N/A   Unknown
2:35 AM 26.6 °F - 26.6 °F 100% 30.15 in 2.5 mi Calm Calm - N/A   Unknown
2:55 AM 26.6 °F - 26.6 °F 100% 30.15 in 2.5 mi Calm Calm - N/A   Unknown
3:15 AM 26.6 °F - 26.6 °F 100% 30.15 in 2.5 mi North - - N/A   Unknown
3:35 AM 26.6 °F - 26.6 °F 100% 30.15 in 1.8 mi Calm Calm - N/A   Unknown
3:55 AM 26.6 °F - 26.6 °F 100% 30.15 in 2.5 mi Calm Calm - N/A   Unknown
4:15 AM 26.6 °F - 26.6 °F 100% 30.16 in 2.0 mi North - - N/A   Unknown
4:35 AM 26.6 °F 18.2 °F 26.6 °F 100% 30.17 in 0.2 mi North 8.1 mph - N/A   Unknown
4:55 AM 26.6 °F 18.2 °F 26.6 °F 100% 30.18 in 0.2 mi North 8.1 mph - N/A   Unknown
5:15 AM 26.6 °F 19.1 °F 26.6 °F 100% 30.19 in 0.2 mi North 6.9 mph - N/A   Unknown
5:35 AM 26.6 °F 20.0 °F 26.6 °F 100% 30.19 in 0.2 mi North 5.8 mph - N/A   Unknown
5:55 AM 26.6 °F 19.1 °F 26.6 °F 100% 30.19 in 0.2 mi NNE 6.9 mph - N/A   Unknown
6:15 AM 26.6 °F 19.1 °F 26.6 °F 100% 30.18 in 0.2 mi NNE 6.9 mph - N/A   Unknown
6:35 AM 26.6 °F 20.0 °F 26.6 °F 100% 30.18 in 0.2 mi NNE 5.8 mph - N/A   Unknown
6:55 AM 28.4 °F 22.2 °F 28.4 °F 100% 30.18 in 0.2 mi NNE 5.8 mph - N/A   Unknown
7:15 AM 28.4 °F 22.2 °F 28.4 °F 100% 30.18 in 0.2 mi NNE 5.8 mph - N/A   Unknown
7:35 AM 28.4 °F 22.2 °F 28.4 °F 100% 30.19 in 0.2 mi North 5.8 mph - N/A   Unknown
7:55 AM 28.4 °F 23.3 °F 28.4 °F 100% 30.20 in 0.2 mi NNW 4.6 mph - N/A   Unknown
8:15 AM 28.4 °F - 28.4 °F 100% 30.22 in 0.5 mi Calm Calm - N/A   Unknown
8:35 AM 30.2 °F 23.4 °F 30.2 °F 100% 30.22 in 0.5 mi North 6.9 mph - N/A   Unknown
8:55 AM 32.0 °F 24.8 °F 32.0 °F 100% 30.21 in 0.5 mi North 8.1 mph - N/A   Unknown
9:15 AM 32.0 °F 26.4 °F 32.0 °F 100% 30.21 in 0.8 mi North 5.8 mph - N/A   Unknown
9:35 AM 32.0 °F 24.8 °F 32.0 °F 100% 30.22 in 1.2 mi North 8.1 mph - N/A   Unknown
9:55 AM 32.0 °F 27.5 °F 32.0 °F 100% 30.22 in 1.8 mi North 4.6 mph - N/A   Unknown
10:15 AM 32.0 °F 25.6 °F 32.0 °F 100% 30.21 in 2.5 mi North 6.9 mph - N/A   Unknown
10:35 AM 33.8 °F 29.6 °F 33.8 °F 100% 30.23 in 3.0 mi NNW 4.6 mph - N/A   Unknown
10:55 AM 35.6 °F 30.7 °F 35.6 °F 100% 30.21 in 3.0 mi North 5.8 mph - N/A   Unknown
11:15 AM 37.4 °F 31.4 °F 37.4 °F 100% 30.19 in 4.0 mi North 8.1 mph - N/A   Unknown
11:35 AM 37.4 °F 29.8 °F 37.4 °F 100% 30.19 in 4.0 mi North 11.5 mph - N/A   Unknown
11:55 AM 39.2 °F 33.0 °F 37.4 °F 93% 30.19 in 5.0 mi North 9.2 mph - N/A   Unknown
12:15 PM 41.0 °F 34.3 °F 37.4 °F 87% 30.17 in 5.0 mi North 11.5 mph - N/A   Unknown
12:35 PM 42.8 °F 35.8 °F 37.4 °F 81% 30.16 in 5.0 mi North 13.8 mph 19.6 mph N/A   Unknown
12:55 PM 41.0 °F 34.7 °F 37.4 °F 87% 30.14 in 4.0 mi North 10.4 mph - N/A   Unknown
1:15 PM 41.0 °F 33.9 °F 37.4 °F 87% 30.13 in 4.0 mi North 12.7 mph - N/A   Unknown
1:35 PM 41.0 °F 32.8 °F 37.4 °F 87% 30.13 in 3.0 mi North 16.1 mph - N/A   Unknown
1:55 PM 41.0 °F 33.9 °F 37.4 °F 87% 30.13 in 4.0 mi North 12.7 mph - N/A   Unknown
2:15 PM 41.0 °F 34.3 °F 39.2 °F 93% 30.13 in 4.0 mi North 11.5 mph - N/A   Unknown
2:35 PM 42.8 °F 37.0 °F 39.2 °F 87% 30.13 in 4.0 mi NNW 10.4 mph - N/A   Unknown
2:55 PM 42.8 °F 37.5 °F 39.2 °F 87% 30.12 in 5.0 mi NNW 9.2 mph 16.1 mph N/A   Unknown
3:15 PM 42.8 °F 37.5 °F 39.2 °F 87% 30.12 in 5.0 mi NNW 9.2 mph - N/A   Unknown
3:35 PM 44.6 °F 38.8 °F 39.2 °F 81% 30.12 in 5.0 mi North 11.5 mph 17.3 mph N/A   Unknown
3:55 PM 44.6 °F 39.7 °F 39.2 °F 81% 30.12 in 5.0 mi NNW 9.2 mph - N/A   Unknown
4:15 PM 44.6 °F 39.2 °F 39.2 °F 81% 30.12 in 5.0 mi NNW 10.4 mph - N/A   Unknown
4:35 PM 42.8 °F 38.0 °F 39.2 °F 87% 30.12 in 5.0 mi NW 8.1 mph - N/A   Unknown
4:55 PM 41.0 °F 34.3 °F 37.4 °F 87% 30.12 in 5.0 mi NW 11.5 mph - N/A   Unknown
5:15 PM 41.0 °F 34.3 °F 37.4 °F 87% 30.13 in 6.0 mi NW 11.5 mph - N/A   Unknown
5:35 PM 39.2 °F 33.6 °F 37.4 °F 93% 30.13 in 5.0 mi NNW 8.1 mph - N/A   Unknown
5:55 PM 39.2 °F 32.5 °F 37.4 °F 93% 30.14 in 4.0 mi NNW 10.4 mph - N/A   Unknown
6:15 PM 37.4 °F 29.3 °F 35.6 °F 93% 30.14 in 5.0 mi NNW 12.7 mph 18.4 mph N/A   Unknown
6:35 PM 35.6 °F 28.6 °F 35.6 °F 100% 30.14 in 4.0 mi North 9.2 mph - N/A   Unknown
6:55 PM 35.6 °F 28.0 °F 35.6 °F 100% 30.15 in 3.0 mi NNW 10.4 mph - N/A   Unknown
7:15 PM 35.6 °F 29.2 °F 35.6 °F 100% 30.16 in 3.0 mi NNW 8.1 mph - N/A   Unknown
7:35 PM 35.6 °F 27.5 °F 35.6 °F 100% 30.16 in 3.0 mi North 11.5 mph - N/A   Unknown
7:55 PM 35.6 °F 27.1 °F 35.6 °F 100% 30.16 in 3.0 mi North 12.7 mph - N/A   Unknown
8:15 PM 35.6 °F 25.5 °F 35.6 °F 100% 30.16 in 2.5 mi North 17.3 mph - N/A   Unknown
8:35 PM 35.6 °F 26.6 °F 35.6 °F 100% 30.16 in 2.0 mi North 13.8 mph - N/A   Unknown
8:55 PM 35.6 °F 26.2 °F 35.6 °F 100% 30.17 in 1.2 mi North 15.0 mph 20.7 mph N/A   Unknown
9:15 PM 33.8 °F 23.5 °F 33.8 °F 100% 30.18 in 0.5 mi North 16.1 mph - N/A   Unknown
9:35 PM 33.8 °F 23.2 °F 33.8 °F 100% 30.18 in 0.5 mi North 17.3 mph - N/A   Unknown
9:55 PM 33.8 °F 24.3 °F 33.8 °F 100% 30.17 in 0.8 mi North 13.8 mph 17.3 mph N/A   Unknown
10:15 PM 33.8 °F 24.3 °F 33.8 °F 100% 30.16 in 0.5 mi North 13.8 mph - N/A   Unknown
10:35 PM 33.8 °F 23.2 °F 33.8 °F 100% 30.15 in 0.8 mi North 17.3 mph - N/A   Unknown
10:55 PM 33.8 °F 23.9 °F 33.8 °F 100% 30.15 in 1.0 mi North 15.0 mph 18.4 mph N/A   Unknown
11:15 PM 33.8 °F 26.4 °F 33.8 °F 100% 30.15 in 0.8 mi North 9.2 mph - N/A   Unknown
11:35 PM 33.8 °F 25.8 °F 33.8 °F 100% 30.15 in 1.0 mi North 10.4 mph - N/A   Unknown
11:55 PM 33.8 °F 27.0 °F 33.8 °F 100% 30.15 in 1.2 mi North 8.1 mph - N/A   Unknown